sensor_id;sensor_type;location;lat;lon;timestamp;P1;durP1;ratioP1;P2;durP2;ratioP2
7027;SDS011;3555;53.248;10.336;2023-04-25T00:02:21;5.17;;;4.00;;
7027;SDS011;3555;53.248;10.336;2023-04-25T00:04:48;6.93;;;4.17;;
7027;SDS011;3555;53.248;10.336;2023-04-25T00:07:15;5.07;;;3.97;;
7027;SDS011;3555;53.248;10.336;2023-04-25T00:09:42;9.03;;;4.77;;
7027;SDS011;3555;53.248;10.336;2023-04-25T00:12:09;5.33;;;4.33;;
7027;SDS011;3555;53.248;10.336;2023-04-25T00:14:36;5.13;;;3.87;;
7027;SDS011;3555;53.248;10.336;2023-04-25T00:17:03;7.33;;;3.87;;
7027;SDS011;3555;53.248;10.336;2023-04-25T00:19:32;6.90;;;4.50;;
7027;SDS011;3555;53.248;10.336;2023-04-25T00:21:59;7.93;;;4.43;;
7027;SDS011;3555;53.248;10.336;2023-04-25T00:24:26;5.97;;;4.30;;
7027;SDS011;3555;53.248;10.336;2023-04-25T00:26:53;6.47;;;4.37;;
7027;SDS011;3555;53.248;10.336;2023-04-25T00:29:20;5.70;;;4.07;;
7027;SDS011;3555;53.248;10.336;2023-04-25T00:31:47;6.07;;;4.00;;
7027;SDS011;3555;53.248;10.336;2023-04-25T00:34:14;5.17;;;4.37;;
7027;SDS011;3555;53.248;10.336;2023-04-25T00:36:42;5.57;;;3.53;;
7027;SDS011;3555;53.248;10.336;2023-04-25T00:39:09;5.83;;;4.13;;
7027;SDS011;3555;53.248;10.336;2023-04-25T00:41:36;6.00;;;4.40;;
7027;SDS011;3555;53.248;10.336;2023-04-25T00:44:03;5.67;;;4.60;;
7027;SDS011;3555;53.248;10.336;2023-04-25T00:46:31;9.83;;;4.20;;
7027;SDS011;3555;53.248;10.336;2023-04-25T00:48:58;7.83;;;4.60;;
7027;SDS011;3555;53.248;10.336;2023-04-25T00:51:25;9.57;;;4.93;;
7027;SDS011;3555;53.248;10.336;2023-04-25T00:53:54;7.07;;;5.27;;
7027;SDS011;3555;53.248;10.336;2023-04-25T00:56:21;7.07;;;4.77;;
7027;SDS011;3555;53.248;10.336;2023-04-25T00:58:48;9.50;;;5.27;;
7027;SDS011;3555;53.248;10.336;2023-04-25T01:01:19;11.33;;;5.23;;
7027;SDS011;3555;53.248;10.336;2023-04-25T01:03:46;9.20;;;5.93;;
7027;SDS011;3555;53.248;10.336;2023-04-25T01:06:17;7.50;;;4.83;;
7027;SDS011;3555;53.248;10.336;2023-04-25T01:08:44;7.10;;;5.33;;
7027;SDS011;3555;53.248;10.336;2023-04-25T01:11:12;7.23;;;4.23;;
7027;SDS011;3555;53.248;10.336;2023-04-25T01:13:39;8.00;;;3.77;;
7027;SDS011;3555;53.248;10.336;2023-04-25T01:16:06;8.30;;;3.97;;
7027;SDS011;3555;53.248;10.336;2023-04-25T01:18:33;6.63;;;3.90;;
7027;SDS011;3555;53.248;10.336;2023-04-25T01:21:08;6.57;;;3.33;;
7027;SDS011;3555;53.248;10.336;2023-04-25T01:23:35;9.70;;;3.37;;
7027;SDS011;3555;53.248;10.336;2023-04-25T01:26:03;11.50;;;3.37;;
7027;SDS011;3555;53.248;10.336;2023-04-25T01:28:30;9.87;;;4.17;;
7027;SDS011;3555;53.248;10.336;2023-04-25T01:30:59;12.57;;;4.27;;
7027;SDS011;3555;53.248;10.336;2023-04-25T01:33:26;10.80;;;3.43;;
7027;SDS011;3555;53.248;10.336;2023-04-25T01:35:53;13.00;;;3.63;;
7027;SDS011;3555;53.248;10.336;2023-04-25T01:38:21;13.27;;;3.73;;
7027;SDS011;3555;53.248;10.336;2023-04-25T01:40:48;10.23;;;2.80;;
7027;SDS011;3555;53.248;10.336;2023-04-25T01:43:16;8.13;;;3.40;;
7027;SDS011;3555;53.248;10.336;2023-04-25T01:45:43;7.80;;;3.00;;
7027;SDS011;3555;53.248;10.336;2023-04-25T01:48:11;13.40;;;2.87;;
7027;SDS011;3555;53.248;10.336;2023-04-25T01:50:39;11.77;;;3.47;;
7027;SDS011;3555;53.248;10.336;2023-04-25T01:53:06;9.67;;;2.90;;
7027;SDS011;3555;53.248;10.336;2023-04-25T01:55:36;14.47;;;3.70;;
7027;SDS011;3555;53.248;10.336;2023-04-25T01:58:03;13.73;;;3.40;;
7027;SDS011;3555;53.248;10.336;2023-04-25T02:00:34;17.43;;;3.27;;
7027;SDS011;3555;53.248;10.336;2023-04-25T02:03:03;13.00;;;3.30;;
7027;SDS011;3555;53.248;10.336;2023-04-25T02:05:33;14.43;;;3.13;;
7027;SDS011;3555;53.248;10.336;2023-04-25T02:08:01;14.47;;;3.50;;
7027;SDS011;3555;53.248;10.336;2023-04-25T02:13:51;14.97;;;3.67;;
7027;SDS011;3555;53.248;10.336;2023-04-25T02:16:18;15.90;;;3.87;;
7027;SDS011;3555;53.248;10.336;2023-04-25T02:18:45;15.87;;;4.47;;
7027;SDS011;3555;53.248;10.336;2023-04-25T02:21:12;20.80;;;4.30;;
7027;SDS011;3555;53.248;10.336;2023-04-25T02:23:40;16.93;;;3.83;;
7027;SDS011;3555;53.248;10.336;2023-04-25T02:26:07;12.13;;;3.10;;
7027;SDS011;3555;53.248;10.336;2023-04-25T02:28:34;13.07;;;3.10;;
7027;SDS011;3555;53.248;10.336;2023-04-25T02:31:02;16.60;;;3.53;;
7027;SDS011;3555;53.248;10.336;2023-04-25T02:33:29;13.73;;;3.57;;
7027;SDS011;3555;53.248;10.336;2023-04-25T02:35:56;9.93;;;3.40;;
7027;SDS011;3555;53.248;10.336;2023-04-25T02:38:23;16.80;;;3.57;;
7027;SDS011;3555;53.248;10.336;2023-04-25T02:40:49;11.37;;;4.10;;
7027;SDS011;3555;53.248;10.336;2023-04-25T02:43:16;17.27;;;3.67;;
7027;SDS011;3555;53.248;10.336;2023-04-25T02:45:43;11.77;;;3.60;;
7027;SDS011;3555;53.248;10.336;2023-04-25T02:48:11;16.37;;;5.27;;
7027;SDS011;3555;53.248;10.336;2023-04-25T02:50:38;22.50;;;4.17;;
7027;SDS011;3555;53.248;10.336;2023-04-25T02:53:05;14.90;;;3.73;;
7027;SDS011;3555;53.248;10.336;2023-04-25T02:55:32;15.47;;;4.33;;
7027;SDS011;3555;53.248;10.336;2023-04-25T02:57:59;13.47;;;4.77;;
7027;SDS011;3555;53.248;10.336;2023-04-25T03:00:26;15.77;;;4.00;;
7027;SDS011;3555;53.248;10.336;2023-04-25T03:02:53;17.40;;;3.60;;
7027;SDS011;3555;53.248;10.336;2023-04-25T03:05:21;10.40;;;3.63;;
7027;SDS011;3555;53.248;10.336;2023-04-25T03:07:48;12.53;;;4.33;;
7027;SDS011;3555;53.248;10.336;2023-04-25T03:10:15;17.00;;;3.90;;
7027;SDS011;3555;53.248;10.336;2023-04-25T03:12:42;19.53;;;3.83;;
7027;SDS011;3555;53.248;10.336;2023-04-25T03:15:09;18.80;;;3.70;;
7027;SDS011;3555;53.248;10.336;2023-04-25T03:17:36;16.63;;;5.13;;
7027;SDS011;3555;53.248;10.336;2023-04-25T03:20:03;18.03;;;4.50;;
7027;SDS011;3555;53.248;10.336;2023-04-25T03:22:34;16.57;;;3.73;;
7027;SDS011;3555;53.248;10.336;2023-04-25T03:25:01;15.77;;;3.80;;
7027;SDS011;3555;53.248;10.336;2023-04-25T03:27:29;14.13;;;4.00;;
7027;SDS011;3555;53.248;10.336;2023-04-25T03:29:55;14.70;;;3.77;;
7027;SDS011;3555;53.248;10.336;2023-04-25T03:32:22;16.03;;;4.90;;
7027;SDS011;3555;53.248;10.336;2023-04-25T03:34:49;15.13;;;3.50;;
7027;SDS011;3555;53.248;10.336;2023-04-25T03:37:16;14.63;;;4.07;;
7027;SDS011;3555;53.248;10.336;2023-04-25T03:39:44;14.27;;;4.20;;
7027;SDS011;3555;53.248;10.336;2023-04-25T03:42:11;12.50;;;3.27;;
7027;SDS011;3555;53.248;10.336;2023-04-25T03:44:38;14.57;;;3.60;;
7027;SDS011;3555;53.248;10.336;2023-04-25T03:47:04;17.57;;;4.50;;
7027;SDS011;3555;53.248;10.336;2023-04-25T03:49:32;15.77;;;3.63;;
7027;SDS011;3555;53.248;10.336;2023-04-25T03:52:00;15.97;;;4.57;;
7027;SDS011;3555;53.248;10.336;2023-04-25T03:54:27;15.10;;;4.37;;
7027;SDS011;3555;53.248;10.336;2023-04-25T03:56:56;18.60;;;3.63;;
7027;SDS011;3555;53.248;10.336;2023-04-25T03:59:22;16.07;;;3.63;;
7027;SDS011;3555;53.248;10.336;2023-04-25T04:01:50;17.80;;;3.27;;
7027;SDS011;3555;53.248;10.336;2023-04-25T04:04:17;14.17;;;3.93;;
7027;SDS011;3555;53.248;10.336;2023-04-25T04:06:44;23.30;;;4.23;;
7027;SDS011;3555;53.248;10.336;2023-04-25T04:09:11;18.77;;;4.73;;
7027;SDS011;3555;53.248;10.336;2023-04-25T04:11:38;14.73;;;4.00;;
7027;SDS011;3555;53.248;10.336;2023-04-25T04:14:06;20.23;;;3.97;;
7027;SDS011;3555;53.248;10.336;2023-04-25T04:16:35;19.50;;;4.00;;
7027;SDS011;3555;53.248;10.336;2023-04-25T04:19:02;14.87;;;3.80;;
7027;SDS011;3555;53.248;10.336;2023-04-25T04:21:29;15.00;;;4.60;;
7027;SDS011;3555;53.248;10.336;2023-04-25T04:23:56;14.87;;;3.50;;
7027;SDS011;3555;53.248;10.336;2023-04-25T04:26:25;16.10;;;4.57;;
7027;SDS011;3555;53.248;10.336;2023-04-25T04:28:52;16.17;;;3.57;;
7027;SDS011;3555;53.248;10.336;2023-04-25T04:31:21;14.10;;;3.80;;
7027;SDS011;3555;53.248;10.336;2023-04-25T04:33:48;13.17;;;4.50;;
7027;SDS011;3555;53.248;10.336;2023-04-25T04:36:15;16.73;;;3.83;;
7027;SDS011;3555;53.248;10.336;2023-04-25T04:38:45;17.90;;;3.23;;
7027;SDS011;3555;53.248;10.336;2023-04-25T04:41:12;14.90;;;3.40;;
7027;SDS011;3555;53.248;10.336;2023-04-25T04:43:38;13.83;;;3.77;;
7027;SDS011;3555;53.248;10.336;2023-04-25T04:46:05;17.00;;;3.57;;
7027;SDS011;3555;53.248;10.336;2023-04-25T04:48:33;14.13;;;3.73;;
7027;SDS011;3555;53.248;10.336;2023-04-25T04:51:00;13.33;;;3.37;;
7027;SDS011;3555;53.248;10.336;2023-04-25T04:53:27;12.33;;;3.63;;
7027;SDS011;3555;53.248;10.336;2023-04-25T04:55:54;11.17;;;4.07;;
7027;SDS011;3555;53.248;10.336;2023-04-25T04:58:21;15.13;;;3.37;;
7027;SDS011;3555;53.248;10.336;2023-04-25T05:00:48;16.23;;;4.10;;
7027;SDS011;3555;53.248;10.336;2023-04-25T05:03:15;21.10;;;4.23;;
7027;SDS011;3555;53.248;10.336;2023-04-25T05:05:43;16.93;;;3.63;;
7027;SDS011;3555;53.248;10.336;2023-04-25T05:08:10;16.00;;;4.00;;
7027;SDS011;3555;53.248;10.336;2023-04-25T05:10:37;14.33;;;3.77;;
7027;SDS011;3555;53.248;10.336;2023-04-25T05:13:04;13.27;;;3.03;;
7027;SDS011;3555;53.248;10.336;2023-04-25T05:15:31;17.77;;;3.90;;
7027;SDS011;3555;53.248;10.336;2023-04-25T05:17:58;10.73;;;3.03;;
7027;SDS011;3555;53.248;10.336;2023-04-25T05:20:25;15.10;;;3.57;;
7027;SDS011;3555;53.248;10.336;2023-04-25T05:22:53;17.67;;;5.67;;
7027;SDS011;3555;53.248;10.336;2023-04-25T05:25:20;12.33;;;3.20;;
7027;SDS011;3555;53.248;10.336;2023-04-25T05:27:47;10.93;;;3.90;;
7027;SDS011;3555;53.248;10.336;2023-04-25T05:30:13;10.97;;;2.97;;
7027;SDS011;3555;53.248;10.336;2023-04-25T05:32:40;11.90;;;3.37;;
7027;SDS011;3555;53.248;10.336;2023-04-25T05:35:07;16.63;;;4.03;;
7027;SDS011;3555;53.248;10.336;2023-04-25T05:37:34;12.90;;;3.13;;
7027;SDS011;3555;53.248;10.336;2023-04-25T05:40:03;15.30;;;4.10;;
7027;SDS011;3555;53.248;10.336;2023-04-25T05:42:31;12.57;;;2.73;;
7027;SDS011;3555;53.248;10.336;2023-04-25T05:44:58;15.67;;;3.23;;
7027;SDS011;3555;53.248;10.336;2023-04-25T05:47:25;14.70;;;3.67;;
7027;SDS011;3555;53.248;10.336;2023-04-25T05:49:52;9.50;;;2.80;;
7027;SDS011;3555;53.248;10.336;2023-04-25T05:52:19;12.93;;;3.60;;
7027;SDS011;3555;53.248;10.336;2023-04-25T05:54:46;13.20;;;3.47;;
7027;SDS011;3555;53.248;10.336;2023-04-25T05:57:19;13.87;;;3.40;;
7027;SDS011;3555;53.248;10.336;2023-04-25T05:59:47;12.20;;;3.17;;
7027;SDS011;3555;53.248;10.336;2023-04-25T06:02:14;12.77;;;3.13;;
7027;SDS011;3555;53.248;10.336;2023-04-25T06:04:41;10.47;;;2.80;;
7027;SDS011;3555;53.248;10.336;2023-04-25T06:07:08;7.93;;;2.73;;
7027;SDS011;3555;53.248;10.336;2023-04-25T06:09:35;11.07;;;2.77;;
7027;SDS011;3555;53.248;10.336;2023-04-25T06:12:04;13.93;;;3.70;;
7027;SDS011;3555;53.248;10.336;2023-04-25T06:14:32;11.13;;;2.77;;
7027;SDS011;3555;53.248;10.336;2023-04-25T06:16:59;10.70;;;2.50;;
7027;SDS011;3555;53.248;10.336;2023-04-25T06:19:31;11.70;;;3.67;;
7027;SDS011;3555;53.248;10.336;2023-04-25T06:21:58;13.83;;;2.97;;
7027;SDS011;3555;53.248;10.336;2023-04-25T06:24:25;14.13;;;2.83;;
7027;SDS011;3555;53.248;10.336;2023-04-25T06:26:52;8.87;;;2.50;;
7027;SDS011;3555;53.248;10.336;2023-04-25T06:29:19;10.33;;;2.63;;
7027;SDS011;3555;53.248;10.336;2023-04-25T06:31:47;11.60;;;3.07;;
7027;SDS011;3555;53.248;10.336;2023-04-25T06:34:15;12.63;;;3.30;;
7027;SDS011;3555;53.248;10.336;2023-04-25T06:36:42;7.70;;;2.80;;
7027;SDS011;3555;53.248;10.336;2023-04-25T06:39:09;13.47;;;2.80;;
7027;SDS011;3555;53.248;10.336;2023-04-25T06:41:36;8.70;;;2.40;;
7027;SDS011;3555;53.248;10.336;2023-04-25T06:44:03;17.17;;;2.97;;
7027;SDS011;3555;53.248;10.336;2023-04-25T06:46:30;11.53;;;3.73;;
7027;SDS011;3555;53.248;10.336;2023-04-25T06:48:58;13.07;;;2.87;;
7027;SDS011;3555;53.248;10.336;2023-04-25T06:51:25;13.73;;;3.13;;
7027;SDS011;3555;53.248;10.336;2023-04-25T06:53:54;8.63;;;2.70;;
7027;SDS011;3555;53.248;10.336;2023-04-25T06:56:21;9.83;;;2.57;;
7027;SDS011;3555;53.248;10.336;2023-04-25T06:58:48;16.23;;;3.37;;
7027;SDS011;3555;53.248;10.336;2023-04-25T07:01:15;16.10;;;2.77;;
7027;SDS011;3555;53.248;10.336;2023-04-25T07:03:42;12.37;;;3.00;;
7027;SDS011;3555;53.248;10.336;2023-04-25T07:06:10;12.37;;;3.00;;
7027;SDS011;3555;53.248;10.336;2023-04-25T07:08:37;9.20;;;2.50;;
7027;SDS011;3555;53.248;10.336;2023-04-25T07:11:04;15.57;;;4.43;;
7027;SDS011;3555;53.248;10.336;2023-04-25T07:13:30;12.97;;;3.77;;
7027;SDS011;3555;53.248;10.336;2023-04-25T07:15:57;8.87;;;2.47;;
7027;SDS011;3555;53.248;10.336;2023-04-25T07:18:25;10.73;;;2.73;;
7027;SDS011;3555;53.248;10.336;2023-04-25T07:20:52;8.27;;;2.50;;
7027;SDS011;3555;53.248;10.336;2023-04-25T07:23:20;11.43;;;3.30;;
7027;SDS011;3555;53.248;10.336;2023-04-25T07:25:47;11.10;;;3.37;;
7027;SDS011;3555;53.248;10.336;2023-04-25T07:28:14;11.17;;;2.73;;
7027;SDS011;3555;53.248;10.336;2023-04-25T07:30:41;11.97;;;2.70;;
7027;SDS011;3555;53.248;10.336;2023-04-25T07:33:08;8.73;;;2.83;;
7027;SDS011;3555;53.248;10.336;2023-04-25T07:35:35;9.17;;;2.57;;
7027;SDS011;3555;53.248;10.336;2023-04-25T07:38:02;8.93;;;2.40;;
7027;SDS011;3555;53.248;10.336;2023-04-25T07:40:33;8.57;;;2.67;;
7027;SDS011;3555;53.248;10.336;2023-04-25T07:43:00;12.57;;;2.83;;
7027;SDS011;3555;53.248;10.336;2023-04-25T07:45:27;12.33;;;2.20;;
7027;SDS011;3555;53.248;10.336;2023-04-25T07:47:54;6.80;;;2.63;;
7027;SDS011;3555;53.248;10.336;2023-04-25T07:50:21;10.37;;;2.13;;
7027;SDS011;3555;53.248;10.336;2023-04-25T07:52:48;13.87;;;3.87;;
7027;SDS011;3555;53.248;10.336;2023-04-25T07:55:14;8.93;;;2.20;;
7027;SDS011;3555;53.248;10.336;2023-04-25T07:57:43;8.27;;;2.57;;
7027;SDS011;3555;53.248;10.336;2023-04-25T08:00:10;7.23;;;2.00;;
7027;SDS011;3555;53.248;10.336;2023-04-25T08:02:38;9.43;;;2.50;;
7027;SDS011;3555;53.248;10.336;2023-04-25T08:05:05;5.73;;;2.30;;
7027;SDS011;3555;53.248;10.336;2023-04-25T08:07:33;11.87;;;2.10;;
7027;SDS011;3555;53.248;10.336;2023-04-25T08:10:00;10.27;;;2.33;;
7027;SDS011;3555;53.248;10.336;2023-04-25T08:12:27;5.83;;;2.03;;
7027;SDS011;3555;53.248;10.336;2023-04-25T08:14:55;10.03;;;2.57;;
7027;SDS011;3555;53.248;10.336;2023-04-25T08:17:22;6.80;;;1.60;;
7027;SDS011;3555;53.248;10.336;2023-04-25T08:19:49;7.07;;;2.37;;
7027;SDS011;3555;53.248;10.336;2023-04-25T08:22:16;8.40;;;2.33;;
7027;SDS011;3555;53.248;10.336;2023-04-25T08:24:43;6.30;;;1.70;;
7027;SDS011;3555;53.248;10.336;2023-04-25T08:27:10;5.10;;;1.83;;
7027;SDS011;3555;53.248;10.336;2023-04-25T08:29:37;6.07;;;2.13;;
7027;SDS011;3555;53.248;10.336;2023-04-25T08:32:05;7.43;;;1.90;;
7027;SDS011;3555;53.248;10.336;2023-04-25T08:34:32;4.63;;;1.80;;
7027;SDS011;3555;53.248;10.336;2023-04-25T08:36:59;4.97;;;2.03;;
7027;SDS011;3555;53.248;10.336;2023-04-25T08:39:26;6.17;;;1.50;;
7027;SDS011;3555;53.248;10.336;2023-04-25T08:41:53;4.83;;;1.90;;
7027;SDS011;3555;53.248;10.336;2023-04-25T08:44:20;7.80;;;2.07;;
7027;SDS011;3555;53.248;10.336;2023-04-25T08:46:48;6.57;;;1.73;;
7027;SDS011;3555;53.248;10.336;2023-04-25T08:49:17;5.07;;;1.70;;
7027;SDS011;3555;53.248;10.336;2023-04-25T08:51:45;5.90;;;1.77;;
7027;SDS011;3555;53.248;10.336;2023-04-25T08:54:13;4.60;;;1.87;;
7027;SDS011;3555;53.248;10.336;2023-04-25T08:56:41;7.07;;;1.87;;
7027;SDS011;3555;53.248;10.336;2023-04-25T08:59:11;6.20;;;1.70;;
7027;SDS011;3555;53.248;10.336;2023-04-25T09:01:38;7.78;;;1.80;;
7027;SDS011;3555;53.248;10.336;2023-04-25T09:04:05;9.05;;;1.60;;
7027;SDS011;3555;53.248;10.336;2023-04-25T09:06:34;7.38;;;1.48;;
7027;SDS011;3555;53.248;10.336;2023-04-25T09:09:02;8.77;;;2.10;;
7027;SDS011;3555;53.248;10.336;2023-04-25T09:11:31;5.43;;;2.45;;
7027;SDS011;3555;53.248;10.336;2023-04-25T09:14:14;8.43;;;1.73;;
7027;SDS011;3555;53.248;10.336;2023-04-25T09:16:57;4.70;;;1.92;;
7027;SDS011;3555;53.248;10.336;2023-04-25T09:19:29;6.32;;;2.15;;
7027;SDS011;3555;53.248;10.336;2023-04-25T09:22:00;7.30;;;2.20;;
7027;SDS011;3555;53.248;10.336;2023-04-25T09:24:35;5.67;;;1.70;;
7027;SDS011;3555;53.248;10.336;2023-04-25T09:27:03;4.90;;;1.53;;
7027;SDS011;3555;53.248;10.336;2023-04-25T09:29:31;6.63;;;1.33;;
7027;SDS011;3555;53.248;10.336;2023-04-25T09:32:11;3.87;;;1.30;;
7027;SDS011;3555;53.248;10.336;2023-04-25T09:34:43;4.73;;;1.23;;
7027;SDS011;3555;53.248;10.336;2023-04-25T09:37:18;2.67;;;1.00;;
7027;SDS011;3555;53.248;10.336;2023-04-25T09:39:46;7.87;;;1.70;;
7027;SDS011;3555;53.248;10.336;2023-04-25T09:42:14;3.03;;;1.37;;
7027;SDS011;3555;53.248;10.336;2023-04-25T09:44:42;5.83;;;1.70;;
7027;SDS011;3555;53.248;10.336;2023-04-25T09:47:10;6.53;;;1.73;;
7027;SDS011;3555;53.248;10.336;2023-04-25T09:49:39;6.30;;;1.70;;
7027;SDS011;3555;53.248;10.336;2023-04-25T09:52:08;6.00;;;1.70;;
7027;SDS011;3555;53.248;10.336;2023-04-25T09:54:37;6.27;;;1.70;;
7027;SDS011;3555;53.248;10.336;2023-04-25T09:57:06;6.93;;;1.93;;
7027;SDS011;3555;53.248;10.336;2023-04-25T09:59:38;8.93;;;2.33;;
7027;SDS011;3555;53.248;10.336;2023-04-25T10:02:08;6.77;;;1.60;;
7027;SDS011;3555;53.248;10.336;2023-04-25T10:04:36;6.10;;;1.60;;
7027;SDS011;3555;53.248;10.336;2023-04-25T10:07:05;5.43;;;1.40;;
7027;SDS011;3555;53.248;10.336;2023-04-25T10:09:33;2.73;;;1.20;;
7027;SDS011;3555;53.248;10.336;2023-04-25T10:12:04;2.83;;;1.10;;
7027;SDS011;3555;53.248;10.336;2023-04-25T10:14:31;5.07;;;1.20;;
7027;SDS011;3555;53.248;10.336;2023-04-25T10:16:58;4.73;;;1.30;;
7027;SDS011;3555;53.248;10.336;2023-04-25T10:19:26;4.17;;;1.40;;
7027;SDS011;3555;53.248;10.336;2023-04-25T10:21:55;4.40;;;1.03;;
7027;SDS011;3555;53.248;10.336;2023-04-25T10:24:29;4.07;;;1.03;;
7027;SDS011;3555;53.248;10.336;2023-04-25T10:26:56;5.30;;;1.73;;
7027;SDS011;3555;53.248;10.336;2023-04-25T10:29:25;2.67;;;1.30;;
7027;SDS011;3555;53.248;10.336;2023-04-25T10:31:53;2.10;;;1.07;;
7027;SDS011;3555;53.248;10.336;2023-04-25T10:34:23;4.40;;;1.30;;
7027;SDS011;3555;53.248;10.336;2023-04-25T10:36:52;4.83;;;1.57;;
7027;SDS011;3555;53.248;10.336;2023-04-25T10:39:24;5.13;;;1.43;;
7027;SDS011;3555;53.248;10.336;2023-04-25T10:41:53;4.70;;;1.40;;
7027;SDS011;3555;53.248;10.336;2023-04-25T10:44:22;4.60;;;1.57;;
7027;SDS011;3555;53.248;10.336;2023-04-25T10:46:54;7.50;;;1.27;;
7027;SDS011;3555;53.248;10.336;2023-04-25T10:52:11;7.67;;;1.50;;
7027;SDS011;3555;53.248;10.336;2023-04-25T10:54:45;4.77;;;1.20;;
7027;SDS011;3555;53.248;10.336;2023-04-25T10:57:29;9.07;;;1.70;;
7027;SDS011;3555;53.248;10.336;2023-04-25T11:00:01;8.07;;;1.70;;
7027;SDS011;3555;53.248;10.336;2023-04-25T11:02:33;4.18;;;1.33;;
7027;SDS011;3555;53.248;10.336;2023-04-25T11:05:04;5.28;;;1.30;;
7027;SDS011;3555;53.248;10.336;2023-04-25T11:07:34;4.63;;;1.75;;
7027;SDS011;3555;53.248;10.336;2023-04-25T11:10:04;4.38;;;1.45;;
7027;SDS011;3555;53.248;10.336;2023-04-25T11:12:32;5.38;;;1.52;;
7027;SDS011;3555;53.248;10.336;2023-04-25T11:15:00;4.05;;;1.45;;
7027;SDS011;3555;53.248;10.336;2023-04-25T11:17:28;6.85;;;1.80;;
7027;SDS011;3555;53.248;10.336;2023-04-25T11:19:57;4.97;;;1.30;;
7027;SDS011;3555;53.248;10.336;2023-04-25T11:22:24;4.63;;;1.27;;
7027;SDS011;3555;53.248;10.336;2023-04-25T11:24:52;5.45;;;1.48;;
7027;SDS011;3555;53.248;10.336;2023-04-25T11:27:19;5.30;;;1.65;;
7027;SDS011;3555;53.248;10.336;2023-04-25T11:29:49;3.67;;;1.45;;
7027;SDS011;3555;53.248;10.336;2023-04-25T11:32:17;7.20;;;1.38;;
7027;SDS011;3555;53.248;10.336;2023-04-25T11:34:45;6.03;;;1.50;;
7027;SDS011;3555;53.248;10.336;2023-04-25T11:37:14;3.88;;;1.23;;
7027;SDS011;3555;53.248;10.336;2023-04-25T11:39:44;5.35;;;1.27;;
7027;SDS011;3555;53.248;10.336;2023-04-25T11:42:12;10.90;;;1.40;;
7027;SDS011;3555;53.248;10.336;2023-04-25T11:44:39;3.83;;;1.30;;
7027;SDS011;3555;53.248;10.336;2023-04-25T11:47:06;4.23;;;1.20;;
7027;SDS011;3555;53.248;10.336;2023-04-25T11:49:33;4.63;;;1.50;;
7027;SDS011;3555;53.248;10.336;2023-04-25T11:52:01;4.73;;;1.40;;
7027;SDS011;3555;53.248;10.336;2023-04-25T11:54:30;6.07;;;1.40;;
7027;SDS011;3555;53.248;10.336;2023-04-25T11:56:57;3.37;;;1.10;;
7027;SDS011;3555;53.248;10.336;2023-04-25T11:59:24;5.63;;;1.60;;
7027;SDS011;3555;53.248;10.336;2023-04-25T12:01:52;5.55;;;1.83;;
7027;SDS011;3555;53.248;10.336;2023-04-25T12:04:20;4.73;;;1.47;;
7027;SDS011;3555;53.248;10.336;2023-04-25T12:06:49;5.17;;;1.53;;
7027;SDS011;3555;53.248;10.336;2023-04-25T12:09:17;5.23;;;1.67;;
7027;SDS011;3555;53.248;10.336;2023-04-25T12:11:47;4.80;;;1.60;;
7027;SDS011;3555;53.248;10.336;2023-04-25T12:14:22;4.38;;;1.05;;
7027;SDS011;3555;53.248;10.336;2023-04-25T12:16:52;4.73;;;1.30;;
7027;SDS011;3555;53.248;10.336;2023-04-25T12:19:22;5.07;;;1.42;;
7027;SDS011;3555;53.248;10.336;2023-04-25T12:21:49;4.70;;;1.40;;
7027;SDS011;3555;53.248;10.336;2023-04-25T12:24:17;6.87;;;1.53;;
7027;SDS011;3555;53.248;10.336;2023-04-25T12:26:51;5.00;;;1.35;;
7027;SDS011;3555;53.248;10.336;2023-04-25T12:29:20;4.22;;;1.48;;
7027;SDS011;3555;53.248;10.336;2023-04-25T12:31:48;2.55;;;1.10;;
7027;SDS011;3555;53.248;10.336;2023-04-25T12:34:16;5.05;;;1.50;;
7027;SDS011;3555;53.248;10.336;2023-04-25T12:36:43;4.03;;;1.40;;
7027;SDS011;3555;53.248;10.336;2023-04-25T12:39:14;6.57;;;1.33;;
7027;SDS011;3555;53.248;10.336;2023-04-25T12:41:42;2.95;;;1.40;;
7027;SDS011;3555;53.248;10.336;2023-04-25T12:44:10;3.65;;;1.17;;
7027;SDS011;3555;53.248;10.336;2023-04-25T12:46:37;5.10;;;1.40;;
7027;SDS011;3555;53.248;10.336;2023-04-25T12:49:04;3.60;;;1.75;;
7027;SDS011;3555;53.248;10.336;2023-04-25T12:51:32;4.80;;;1.55;;
7027;SDS011;3555;53.248;10.336;2023-04-25T12:53:59;5.13;;;1.42;;
7027;SDS011;3555;53.248;10.336;2023-04-25T12:56:26;6.57;;;1.30;;
7027;SDS011;3555;53.248;10.336;2023-04-25T12:58:53;6.93;;;1.40;;
7027;SDS011;3555;53.248;10.336;2023-04-25T13:01:22;4.90;;;1.20;;
7027;SDS011;3555;53.248;10.336;2023-04-25T13:03:49;6.20;;;1.40;;
7027;SDS011;3555;53.248;10.336;2023-04-25T13:06:17;6.55;;;1.35;;
7027;SDS011;3555;53.248;10.336;2023-04-25T13:08:44;4.60;;;1.30;;
7027;SDS011;3555;53.248;10.336;2023-04-25T13:11:11;3.78;;;1.02;;
7027;SDS011;3555;53.248;10.336;2023-04-25T13:13:39;5.68;;;1.30;;
7027;SDS011;3555;53.248;10.336;2023-04-25T13:16:07;5.03;;;1.35;;
7027;SDS011;3555;53.248;10.336;2023-04-25T13:18:35;5.32;;;1.67;;
7027;SDS011;3555;53.248;10.336;2023-04-25T13:21:02;4.55;;;1.60;;
7027;SDS011;3555;53.248;10.336;2023-04-25T13:23:29;5.93;;;1.38;;
7027;SDS011;3555;53.248;10.336;2023-04-25T13:25:56;6.07;;;1.80;;
7027;SDS011;3555;53.248;10.336;2023-04-25T13:28:24;5.17;;;1.70;;
7027;SDS011;3555;53.248;10.336;2023-04-25T13:30:51;7.47;;;1.47;;
7027;SDS011;3555;53.248;10.336;2023-04-25T13:33:18;3.00;;;1.20;;
7027;SDS011;3555;53.248;10.336;2023-04-25T13:35:46;4.60;;;1.50;;
7027;SDS011;3555;53.248;10.336;2023-04-25T13:38:18;2.33;;;1.17;;
7027;SDS011;3555;53.248;10.336;2023-04-25T13:40:46;2.87;;;1.30;;
7027;SDS011;3555;53.248;10.336;2023-04-25T13:43:13;4.10;;;1.30;;
7027;SDS011;3555;53.248;10.336;2023-04-25T13:45:40;1.97;;;1.10;;
7027;SDS011;3555;53.248;10.336;2023-04-25T13:48:07;3.27;;;1.10;;
7027;SDS011;3555;53.248;10.336;2023-04-25T13:50:34;5.13;;;1.57;;
7027;SDS011;3555;53.248;10.336;2023-04-25T13:53:02;3.67;;;1.20;;
7027;SDS011;3555;53.248;10.336;2023-04-25T13:55:29;2.60;;;1.23;;
7027;SDS011;3555;53.248;10.336;2023-04-25T13:57:56;3.57;;;1.30;;
7027;SDS011;3555;53.248;10.336;2023-04-25T14:00:23;3.53;;;1.03;;
7027;SDS011;3555;53.248;10.336;2023-04-25T14:02:50;7.35;;;1.60;;
7027;SDS011;3555;53.248;10.336;2023-04-25T14:05:17;3.38;;;1.27;;
7027;SDS011;3555;53.248;10.336;2023-04-25T14:07:44;3.42;;;1.27;;
7027;SDS011;3555;53.248;10.336;2023-04-25T14:10:12;3.17;;;1.40;;
7027;SDS011;3555;53.248;10.336;2023-04-25T14:12:39;5.10;;;2.25;;
7027;SDS011;3555;53.248;10.336;2023-04-25T14:15:06;3.83;;;1.80;;
7027;SDS011;3555;53.248;10.336;2023-04-25T14:17:33;6.00;;;2.13;;
7027;SDS011;3555;53.248;10.336;2023-04-25T14:20:00;7.60;;;2.22;;
7027;SDS011;3555;53.248;10.336;2023-04-25T14:22:27;6.75;;;2.25;;
7027;SDS011;3555;53.248;10.336;2023-04-25T14:24:53;6.53;;;1.60;;
7027;SDS011;3555;53.248;10.336;2023-04-25T14:27:22;5.90;;;1.85;;
7027;SDS011;3555;53.248;10.336;2023-04-25T14:29:48;5.10;;;1.90;;
7027;SDS011;3555;53.248;10.336;2023-04-25T14:32:15;4.20;;;1.50;;
7027;SDS011;3555;53.248;10.336;2023-04-25T14:34:42;5.70;;;1.60;;
7027;SDS011;3555;53.248;10.336;2023-04-25T14:37:09;3.77;;;1.70;;
7027;SDS011;3555;53.248;10.336;2023-04-25T14:39:36;5.30;;;1.40;;
7027;SDS011;3555;53.248;10.336;2023-04-25T14:42:03;6.60;;;1.57;;
7027;SDS011;3555;53.248;10.336;2023-04-25T14:44:31;3.33;;;1.40;;
7027;SDS011;3555;53.248;10.336;2023-04-25T14:46:58;5.30;;;1.37;;
7027;SDS011;3555;53.248;10.336;2023-04-25T14:49:25;5.53;;;1.25;;
7027;SDS011;3555;53.248;10.336;2023-04-25T14:51:53;4.53;;;1.60;;
7027;SDS011;3555;53.248;10.336;2023-04-25T14:54:20;4.50;;;1.20;;
7027;SDS011;3555;53.248;10.336;2023-04-25T14:56:46;5.03;;;1.58;;
7027;SDS011;3555;53.248;10.336;2023-04-25T14:59:13;3.70;;;1.23;;
7027;SDS011;3555;53.248;10.336;2023-04-25T15:01:41;4.40;;;1.30;;
7027;SDS011;3555;53.248;10.336;2023-04-25T15:04:09;6.68;;;1.55;;
7027;SDS011;3555;53.248;10.336;2023-04-25T15:06:37;6.80;;;1.70;;